Time;durP1;ratioP1;P1;durP2;ratioP2;P2;SDS_P1;SDS_P2;PMS_P1;PMS_P2;Temp;Humidity;BMP_temperature;BMP_pressure;BME280_temperature;BME280_humidity;BME280_pressure;Samples;Min_cycle;Max_cycle;Signal;HPM_P1;HPM_P2
2023/01/19 00:01:10;;;;;;;31.60;14.90;;;;;;;5.29;100.00;99114.66;5072815;28;20052;-71
2023/01/19 00:03:38;;;;;;;29.95;13.48;;;;;;;5.27;100.00;99122.22;5094725;28;20040;-71
2023/01/19 00:06:06;;;;;;;32.03;14.35;;;;;;;5.30;100.00;99115.44;5103241;28;20043;-71
2023/01/19 00:08:35;;;;;;;36.10;15.30;;;;;;;5.33;100.00;99120.31;5112172;28;20036;-71
2023/01/19 00:11:03;;;;;;;35.20;14.25;;;;;;;5.36;100.00;99120.56;5106124;28;20047;-71
2023/01/19 00:13:32;;;;;;;33.20;14.98;;;;;;;5.43;100.00;99114.81;5108417;28;20036;-72
2023/01/19 00:15:59;;;;;;;30.83;15.15;;;;;;;5.50;100.00;99111.78;5097151;28;20055;-71
2023/01/19 00:18:27;;;;;;;32.63;15.35;;;;;;;5.52;100.00;99109.59;5101850;28;20044;-71
2023/01/19 00:20:55;;;;;;;33.50;13.98;;;;;;;5.50;100.00;99111.78;5101529;28;20051;-71
2023/01/19 00:23:23;;;;;;;30.48;12.90;;;;;;;5.40;100.00;99120.81;5101983;28;20044;-71
2023/01/19 00:25:51;;;;;;;30.90;14.02;;;;;;;5.41;100.00;99117.00;5095279;28;20051;-72
2023/01/19 00:28:19;;;;;;;29.88;13.60;;;;;;;5.45;100.00;99117.25;5095309;28;20062;-72
2023/01/19 00:30:49;;;;;;;25.73;13.75;;;;;;;5.42;100.00;99115.91;5104448;28;20059;-72
2023/01/19 00:33:17;;;;;;;28.52;12.98;;;;;;;5.43;100.00;99112.09;5095230;28;20040;-72
2023/01/19 00:35:51;;;;;;;29.77;13.65;;;;;;;5.41;100.00;99100.72;5084178;28;20055;-72
2023/01/19 00:38:19;;;;;;;28.38;12.57;;;;;;;5.30;100.00;99100.00;5115544;28;20051;-72
2023/01/19 00:40:48;;;;;;;24.77;12.90;;;;;;;5.21;100.00;99096.22;5095807;28;20055;-72
2023/01/19 00:43:16;;;;;;;24.85;11.40;;;;;;;5.32;100.00;99105.13;5096192;28;20043;-72
2023/01/19 00:45:44;;;;;;;24.90;12.43;;;;;;;5.22;100.00;99092.44;5095920;28;20402;-72
2023/01/19 00:48:12;;;;;;;21.55;11.27;;;;;;;5.23;100.00;99094.06;5077072;28;20051;-72
2023/01/19 00:50:40;;;;;;;27.73;12.18;;;;;;;5.15;100.00;99098.19;5091206;28;20040;-72
2023/01/19 00:53:08;;;;;;;26.50;12.68;;;;;;;5.16;100.00;99088.13;5094774;28;20040;-72
2023/01/19 00:55:36;;;;;;;25.45;11.05;;;;;;;5.10;100.00;99085.44;5077951;28;20047;-72
2023/01/19 00:58:06;;;;;;;23.08;11.25;;;;;;;5.09;100.00;99083.81;5094708;28;20482;-72
2023/01/19 01:00:33;;;;;;;20.67;10.40;;;;;;;5.06;100.00;99095.25;5075859;28;20040;-72
2023/01/19 01:03:01;;;;;;;22.52;10.85;;;;;;;4.98;100.00;99090.38;5114743;28;20052;-72
2023/01/19 01:05:30;;;;;;;27.52;12.60;;;;;;;4.89;100.00;99095.59;5114713;28;20052;-71
2023/01/19 01:07:58;;;;;;;23.42;12.02;;;;;;;4.77;100.00;99101.34;5078384;28;20047;-72
2023/01/19 01:10:28;;;;;;;26.10;11.43;;;;;;;4.87;100.00;99102.38;5107599;28;20040;-72
2023/01/19 01:12:55;;;;;;;23.42;11.63;;;;;;;4.84;100.00;99098.34;5094258;28;20390;-72
2023/01/19 01:15:43;;;;;;;23.98;11.90;;;;;;;4.84;100.00;99107.28;5094444;28;20040;-72
2023/01/19 01:18:11;;;;;;;22.48;11.70;;;;;;;4.88;100.00;99104.03;5094443;28;20048;-72
2023/01/19 01:20:39;;;;;;;22.13;11.55;;;;;;;4.84;100.00;99096.44;5094419;28;20041;-72
2023/01/19 01:23:07;;;;;;;23.75;11.52;;;;;;;4.82;100.00;99095.91;5076261;28;20067;-72
2023/01/19 01:25:37;;;;;;;23.63;11.55;;;;;;;4.77;100.00;99093.22;5094285;28;20051;-72
2023/01/19 01:28:07;;;;;;;22.42;12.05;;;;;;;4.77;100.00;99103.22;5075869;28;20051;-72
2023/01/19 01:30:38;;;;;;;24.50;10.40;;;;;;;4.72;100.00;99098.66;5094251;28;20407;-72
2023/01/19 01:33:07;;;;;;;22.65;11.30;;;;;;;4.76;100.00;99105.16;5094253;28;20048;-72
2023/01/19 01:35:35;;;;;;;26.02;11.10;;;;;;;4.84;100.00;99101.06;5094030;28;20054;-72
2023/01/19 01:38:03;;;;;;;20.58;10.38;;;;;;;4.86;100.00;99095.34;5093075;28;20059;-72
2023/01/19 01:40:31;;;;;;;19.02;10.52;;;;;;;4.89;100.00;99100.22;5094011;28;20044;-72
2023/01/19 01:42:59;;;;;;;22.77;10.55;;;;;;;4.82;100.00;99095.91;5094120;28;20048;-72
2023/01/19 01:45:30;;;;;;;18.88;9.77;;;;;;;4.89;100.00;99084.75;5103020;28;20046;-72
2023/01/19 01:48:21;;;;;;;19.88;10.93;;;;;;;5.01;100.00;99092.56;5112408;28;20044;-72
2023/01/19 01:53:59;;;;;;;20.10;9.88;;;;;;;5.02;100.00;99088.75;5098816;28;20505;-71
2023/01/19 01:56:34;;;;;;;19.23;8.95;;;;;;;4.96;100.00;99092.59;5096515;28;20056;-72
2023/01/19 01:59:08;;;;;;;24.48;10.57;;;;;;;4.91;100.00;99100.72;5110995;28;20059;-71
2023/01/19 02:04:23;;;;;;;25.35;10.80;;;;;;;5.16;100.00;99096.25;5114212;28;20054;-72
2023/01/19 02:15:17;;;;;;;20.92;10.15;;;;;;;4.89;100.00;99081.25;5100943;28;20051;-71
2023/01/19 02:17:45;;;;;;;21.80;9.85;;;;;;;4.91;100.00;99076.34;5094602;28;20059;-72
2023/01/19 02:20:14;;;;;;;21.23;10.32;;;;;;;4.81;100.00;99083.44;5102138;28;20044;-72
2023/01/19 02:22:48;;;;;;;23.70;10.73;;;;;;;4.93;100.00;99080.38;5097320;28;20040;-72
2023/01/19 02:25:18;;;;;;;22.38;11.05;;;;;;;5.03;100.00;99095.00;5100054;28;20042;-72
2023/01/19 02:27:48;;;;;;;24.90;11.32;;;;;;;5.00;100.00;99092.81;5114027;28;20039;-72
2023/01/19 02:30:17;;;;;;;23.10;11.25;;;;;;;4.97;100.00;99096.91;5101519;28;20048;-72
2023/01/19 02:32:45;;;;;;;23.50;11.88;;;;;;;4.98;100.00;99088.50;5093763;28;20052;-72
2023/01/19 02:35:14;;;;;;;23.65;11.48;;;;;;;5.01;100.00;99086.31;5113241;28;20046;-71
2023/01/19 02:37:44;;;;;;;22.83;9.68;;;;;;;5.01;100.00;99079.00;5113727;28;20035;-72
2023/01/19 02:40:18;;;;;;;23.50;9.88;;;;;;;4.89;100.00;99083.94;5084336;28;20406;-72
2023/01/19 02:42:52;;;;;;;21.80;10.63;;;;;;;4.90;100.00;99075.53;5093997;28;20490;-72
2023/01/19 02:45:21;;;;;;;21.65;10.50;;;;;;;4.87;100.00;99077.97;5094788;28;20513;-72
2023/01/19 02:47:51;;;;;;;19.83;9.60;;;;;;;4.87;100.00;99076.09;5078107;28;20043;-72
2023/01/19 02:50:37;;;;;;;22.95;11.35;;;;;;;4.81;100.00;99083.44;5094288;28;20040;-72
2023/01/19 02:53:46;;;;;;;21.38;11.25;;;;;;;4.71;100.00;99078.84;5094283;28;20407;-72
2023/01/19 02:56:32;;;;;;;19.65;10.35;;;;;;;4.54;100.00;99087.34;5106262;28;20050;-71
2023/01/19 02:59:22;;;;;;;21.42;9.88;;;;;;;4.51;100.00;99101.44;5113072;28;20047;-72
2023/01/19 03:02:11;;;;;;;16.17;9.73;;;;;;;4.54;100.00;99100.88;5094421;28;20044;-72
2023/01/19 03:04:49;;;;;;;17.00;9.48;;;;;;;4.71;100.00;99097.03;5078873;28;20035;-72
2023/01/19 03:07:28;;;;;;;21.70;10.70;;;;;;;4.82;100.00;99112.16;5104109;28;20405;-72
2023/01/19 03:10:10;;;;;;;19.08;9.93;;;;;;;4.84;100.00;99109.97;5096069;28;20478;-72
2023/01/19 03:12:47;;;;;;;22.02;10.93;;;;;;;4.96;100.00;99106.97;5098615;28;20052;-72
2023/01/19 03:15:33;;;;;;;20.17;11.10;;;;;;;4.96;100.00;99116.97;5092389;28;20048;-72
2023/01/19 03:18:07;;;;;;;21.17;10.48;;;;;;;4.92;100.00;99107.78;5092360;28;20059;-72
2023/01/19 03:20:36;;;;;;;23.77;11.60;;;;;;;5.00;100.00;99117.22;5092417;28;20051;-72
2023/01/19 03:23:09;;;;;;;25.75;11.60;;;;;;;5.13;100.00;99107.69;5092234;28;20059;-72
2023/01/19 03:25:41;;;;;;;23.50;11.07;;;;;;;5.15;100.00;99108.19;5074302;28;20075;-72
2023/01/19 03:28:12;;;;;;;26.58;12.55;;;;;;;5.11;100.00;99108.78;5092250;28;20402;-72
2023/01/19 03:30:49;;;;;;;27.73;12.30;;;;;;;5.13;100.00;99126.66;5074457;28;20056;-72
2023/01/19 03:33:26;;;;;;;28.52;13.10;;;;;;;5.22;100.00;99133.09;5092153;28;20067;-72
2023/01/19 03:36:02;;;;;;;29.85;14.85;;;;;;;5.23;100.00;99137.47;5073779;28;20056;-72
2023/01/19 03:38:37;;;;;;;32.78;16.05;;;;;;;5.24;100.00;99131.75;5091964;28;20044;-72
2023/01/19 03:41:10;;;;;;;30.17;15.25;;;;;;;5.29;100.00;99138.22;5092243;28;20443;-72
2023/01/19 03:43:39;;;;;;;32.08;15.85;;;;;;;5.03;100.00;99128.31;5092116;28;20482;-72
2023/01/19 03:46:09;;;;;;;33.75;15.20;;;;;;;5.14;100.00;99133.72;5059186;28;20035;-72
2023/01/19 03:48:38;;;;;;;33.80;16.02;;;;;;;5.22;100.00;99142.06;5111325;28;20048;-72
2023/01/19 03:51:08;;;;;;;30.63;13.70;;;;;;;5.03;100.00;99138.38;5071933;28;20040;-72
2023/01/19 03:53:36;;;;;;;37.40;16.30;;;;;;;5.13;100.00;99130.16;5076771;28;20039;-72
2023/01/19 03:56:05;;;;;;;38.55;17.80;;;;;;;5.04;100.00;99121.81;5103181;28;20044;-72
2023/01/19 03:58:33;;;;;;;34.30;15.13;;;;;;;4.95;100.00;99115.38;5074102;28;20055;-72
2023/01/19 04:01:02;;;;;;;31.25;12.95;;;;;;;4.79;100.00;99112.72;5085503;28;20044;-72
2023/01/19 04:03:30;;;;;;;30.20;12.48;;;;;;;4.76;100.00;99123.28;5090715;28;20040;-72
2023/01/19 04:05:58;;;;;;;27.30;12.43;;;;;;;4.78;100.00;99118.41;5091967;28;20372;-72
2023/01/19 04:08:26;;;;;;;26.50;12.38;;;;;;;4.79;100.00;99122.75;5073927;28;20048;-72
2023/01/19 04:10:57;;;;;;;25.63;12.55;;;;;;;4.72;100.00;99128.47;5091555;28;20044;-72
2023/01/19 04:13:27;;;;;;;29.02;12.75;;;;;;;4.77;100.00;99128.44;5092925;28;20055;-72
2023/01/19 04:16:00;;;;;;;31.65;14.00;;;;;;;4.72;100.00;99128.47;5105045;28;20098;-72
2023/01/19 04:18:29;;;;;;;28.30;13.23;;;;;;;4.67;100.00;99123.88;5109660;28;20478;-71
2023/01/19 04:21:06;;;;;;;26.73;12.20;;;;;;;4.66;100.00;99111.44;5105529;28;20513;-72
2023/01/19 04:23:34;;;;;;;31.05;12.35;;;;;;;4.59;100.00;99123.63;5092192;28;20051;-72
2023/01/19 04:26:07;;;;;;;29.58;12.35;;;;;;;4.56;100.00;99125.00;5091569;28;20052;-72
2023/01/19 04:28:38;;;;;;;23.40;11.27;;;;;;;4.61;100.00;99116.03;5073916;28;20048;-72
2023/01/19 04:31:07;;;;;;;24.65;10.48;;;;;;;4.41;100.00;99129.34;5099629;28;20048;-72
2023/01/19 04:33:35;;;;;;;27.83;12.38;;;;;;;4.69;100.00;99120.88;5101176;28;20044;-71
2023/01/19 04:36:03;;;;;;;25.13;12.68;;;;;;;4.87;100.00;99124.06;5092594;28;20505;-72
2023/01/19 04:38:31;;;;;;;20.85;10.93;;;;;;;4.91;100.00;99119.72;5077027;28;20055;-72
2023/01/19 04:40:59;;;;;;;21.83;10.38;;;;;;;4.93;100.00;99128.38;5094938;28;20485;-72
2023/01/19 04:43:27;;;;;;;26.30;12.50;;;;;;;4.78;100.00;99126.53;5097494;28;20046;-72
2023/01/19 04:45:55;;;;;;;27.27;10.85;;;;;;;4.86;100.00;99130.56;5113553;28;20044;-72
2023/01/19 04:48:23;;;;;;;22.35;11.55;;;;;;;4.77;100.00;99128.44;5095471;28;20048;-72
2023/01/19 04:50:51;;;;;;;24.63;11.40;;;;;;;4.87;100.00;99130.31;5101174;28;20055;-72
2023/01/19 04:53:19;;;;;;;23.27;11.90;;;;;;;4.84;100.00;99123.53;5086781;28;20036;-72
2023/01/19 04:55:52;;;;;;;26.88;13.25;;;;;;;4.61;100.00;99132.28;5100761;28;20052;-72
2023/01/19 04:58:20;;;;;;;31.08;13.52;;;;;;;4.55;100.00;99129.59;5110757;28;20047;-72
2023/01/19 05:00:49;;;;;;;24.98;12.20;;;;;;;4.72;100.00;99133.88;5114791;28;20496;-72
2023/01/19 05:03:18;;;;;;;22.73;11.50;;;;;;;4.80;100.00;99130.59;5112487;28;20481;-72
2023/01/19 05:05:47;;;;;;;28.92;12.52;;;;;;;4.70;100.00;99145.00;5114732;28;20047;-72
2023/01/19 05:08:15;;;;;;;30.67;12.82;;;;;;;4.64;100.00;99143.38;5114511;28;20051;-72
2023/01/19 05:10:43;;;;;;;31.13;13.18;;;;;;;4.82;100.00;99144.69;5112651;28;20044;-72
2023/01/19 05:13:10;;;;;;;26.65;12.60;;;;;;;4.78;100.00;99140.09;5095989;28;20051;-72
2023/01/19 05:15:38;;;;;;;28.38;12.90;;;;;;;4.84;100.00;99137.09;5114832;28;20398;-72
2023/01/19 05:18:06;;;;;;;28.02;14.32;;;;;;;4.91;100.00;99150.34;5114916;28;20406;-72
2023/01/19 05:20:34;;;;;;;28.30;13.50;;;;;;;4.93;100.00;99150.06;5114841;28;20040;-72
2023/01/19 05:23:02;;;;;;;28.75;12.73;;;;;;;5.00;100.00;99141.63;5114638;28;20043;-72
2023/01/19 05:25:30;;;;;;;24.02;12.10;;;;;;;5.03;100.00;99144.59;5114716;28;20050;-72
2023/01/19 05:27:58;;;;;;;27.40;12.15;;;;;;;5.08;100.00;99147.28;5100280;28;20075;-71
2023/01/19 05:30:27;;;;;;;29.63;13.63;;;;;;;5.23;100.00;99151.81;5105980;28;20063;-74
2023/01/19 05:32:55;;;;;;;27.13;13.27;;;;;;;5.18;100.00;99151.06;5100632;28;20371;-72
2023/01/19 05:35:23;;;;;;;30.67;13.57;;;;;;;5.18;100.00;99159.19;5106177;28;20067;-72
2023/01/19 05:38:03;;;;;;;29.80;13.68;;;;;;;5.27;100.00;99168.34;5097802;28;20047;-72
2023/01/19 05:40:31;;;;;;;27.98;12.85;;;;;;;5.20;100.00;99165.13;5093916;28;20036;-72
2023/01/19 05:42:59;;;;;;;25.65;11.88;;;;;;;5.27;100.00;99176.47;5093719;28;20051;-72
2023/01/19 05:45:28;;;;;;;25.98;12.25;;;;;;;5.25;100.00;99189.53;5093781;28;20044;-72
2023/01/19 05:47:56;;;;;;;26.42;11.98;;;;;;;5.20;100.00;99184.13;5093621;28;20055;-72
2023/01/19 05:50:24;;;;;;;33.28;13.50;;;;;;;5.29;100.00;99184.34;5093834;28;20040;-72
2023/01/19 05:52:52;;;;;;;27.95;12.48;;;;;;;5.24;100.00;99188.69;5094868;28;20040;-72
2023/01/19 05:55:20;;;;;;;29.25;12.38;;;;;;;5.22;100.00;99180.03;5110728;28;20059;-72
2023/01/19 05:57:49;;;;;;;24.70;12.35;;;;;;;5.26;100.00;99177.59;5113686;28;20043;-72
2023/01/19 06:00:17;;;;;;;25.48;11.35;;;;;;;5.31;100.00;99187.59;5103013;28;20048;-73
2023/01/19 06:02:48;;;;;;;26.67;12.65;;;;;;;5.14;100.00;99180.63;5077254;28;20036;-71
2023/01/19 06:05:16;;;;;;;30.35;12.93;;;;;;;5.25;100.00;99192.25;5096652;28;20040;-72
2023/01/19 06:07:44;;;;;;;24.30;12.07;;;;;;;5.21;100.00;99191.97;5076441;28;20058;-72
2023/01/19 06:10:12;;;;;;;27.20;13.02;;;;;;;5.30;100.00;99185.97;5093337;28;20044;-72
2023/01/19 06:12:40;;;;;;;26.27;11.68;;;;;;;5.11;100.00;99203.69;5092980;28;20040;-72
2023/01/19 06:15:09;;;;;;;26.08;12.05;;;;;;;5.06;100.00;99203.72;5094183;28;20059;-76
2023/01/19 06:17:38;;;;;;;27.38;12.35;;;;;;;5.19;100.00;99204.19;5100916;28;20063;-74
2023/01/19 06:20:08;;;;;;;23.38;11.48;;;;;;;5.08;100.00;99201.53;5113095;28;20039;-74
2023/01/19 06:22:36;;;;;;;26.63;12.98;;;;;;;5.19;100.00;99209.63;5089382;28;20051;-74
2023/01/19 06:25:04;;;;;;;20.05;10.23;;;;;;;5.06;100.00;99209.13;5092969;28;20474;-74
2023/01/19 06:27:32;;;;;;;24.88;10.90;;;;;;;5.21;100.00;99227.25;5078835;28;20059;-74
2023/01/19 06:30:00;;;;;;;23.80;10.82;;;;;;;5.32;100.00;99229.94;5092877;28;20044;-74
2023/01/19 06:32:29;;;;;;;25.45;11.10;;;;;;;5.14;100.00;99236.75;5090834;28;20521;-74
2023/01/19 06:34:57;;;;;;;24.88;11.32;;;;;;;5.07;100.00;99245.19;5088882;28;20035;-74
2023/01/19 06:37:27;;;;;;;21.08;10.52;;;;;;;5.09;100.00;99234.88;5067168;28;20055;-74
2023/01/19 06:39:55;;;;;;;21.58;11.18;;;;;;;5.23;100.00;99243.25;5083763;28;20055;-74
2023/01/19 06:42:22;;;;;;;24.33;11.90;;;;;;;5.25;100.00;99249.19;5088500;28;20052;-74
2023/01/19 06:44:50;;;;;;;25.63;11.90;;;;;;;5.29;100.00;99244.03;5057532;28;20048;-74
2023/01/19 06:47:18;;;;;;;21.88;10.65;;;;;;;5.37;100.00;99244.25;5075132;28;20079;-72
2023/01/19 06:49:47;;;;;;;23.02;11.27;;;;;;;5.29;100.00;99244.84;5092074;28;20044;-73
2023/01/19 06:52:17;;;;;;;18.98;9.77;;;;;;;5.25;100.00;99249.19;5072923;28;20048;-73
2023/01/19 06:54:45;;;;;;;20.83;10.95;;;;;;;5.04;100.00;99253.88;5090990;28;20067;-73
2023/01/19 06:57:13;;;;;;;22.80;11.07;;;;;;;5.11;100.00;99257.94;5073984;28;20059;-73
2023/01/19 06:59:41;;;;;;;18.63;9.40;;;;;;;5.09;100.00;99256.59;5092037;28;20036;-73
2023/01/19 07:02:10;;;;;;;16.63;8.40;;;;;;;5.02;100.00;99273.13;5074015;28;20048;-73
2023/01/19 07:04:55;;;;;;;15.98;8.02;;;;;;;5.02;100.00;99267.72;5092040;28;20040;-72
2023/01/19 07:07:23;;;;;;;14.80;8.18;;;;;;;4.84;100.00;99278.03;5091955;28;20044;-72
2023/01/19 07:09:51;;;;;;;17.02;8.63;;;;;;;4.81;100.00;99269.66;5091981;28;20052;-72
2023/01/19 07:12:21;;;;;;;15.25;8.05;;;;;;;4.72;100.00;99280.22;5074063;28;20487;-73
2023/01/19 07:14:50;;;;;;;16.13;8.27;;;;;;;4.73;100.00;99289.97;5092037;28;20043;-73
2023/01/19 07:17:18;;;;;;;13.05;7.55;;;;;;;4.76;100.00;99300.28;5074018;28;20055;-72
2023/01/19 07:19:46;;;;;;;13.75;7.05;;;;;;;4.87;100.00;99292.94;5091991;28;20040;-73
2023/01/19 07:22:14;;;;;;;13.80;7.25;;;;;;;4.89;100.00;99295.41;5091998;28;20040;-73
2023/01/19 07:24:42;;;;;;;12.50;7.15;;;;;;;5.07;100.00;99299.41;5091904;28;20044;-73
2023/01/19 07:27:15;;;;;;;10.02;6.55;;;;;;;5.11;100.00;99309.47;5091700;28;20047;-73
2023/01/19 07:29:43;;;;;;;10.38;5.70;;;;;;;5.09;100.00;99308.91;5091785;28;20048;-73
2023/01/19 07:32:11;;;;;;;13.95;6.93;;;;;;;5.02;100.00;99315.69;5091876;28;20115;-73
2023/01/19 07:34:39;;;;;;;12.82;6.68;;;;;;;5.00;100.00;99315.16;5091982;28;20040;-73
2023/01/19 07:37:07;;;;;;;12.40;6.22;;;;;;;4.89;100.00;99327.94;5091870;28;20395;-72
2023/01/19 07:39:35;;;;;;;9.65;5.80;;;;;;;4.87;100.00;99335.50;5091822;28;20055;-73
2023/01/19 07:42:03;;;;;;;9.98;5.85;;;;;;;4.85;100.00;99338.50;5091899;28;20040;-73
2023/01/19 07:44:31;;;;;;;13.50;6.15;;;;;;;5.11;100.00;99343.88;5073846;28;20044;-73
2023/01/19 07:46:59;;;;;;;8.98;5.97;;;;;;;5.16;100.00;99351.19;5091717;28;20063;-72
2023/01/19 07:49:27;;;;;;;11.00;6.20;;;;;;;5.06;100.00;99347.44;5073658;28;20048;-72
2023/01/19 07:51:55;;;;;;;11.57;6.30;;;;;;;5.09;100.00;99356.91;5091751;28;20052;-72
2023/01/19 07:54:23;;;;;;;9.43;6.32;;;;;;;5.01;100.00;99369.13;5091741;28;20061;-72
2023/01/19 07:56:54;;;;;;;10.32;6.53;;;;;;;5.01;100.00;99374.53;5091582;28;20044;-72
2023/01/19 07:59:22;;;;;;;10.00;6.10;;;;;;;4.97;100.00;99371.56;5091566;28;20046;-73
2023/01/19 08:01:52;;;;;;;8.30;5.32;;;;;;;4.88;100.00;99385.94;5091665;28;20047;-73
2023/01/19 08:04:20;;;;;;;7.97;4.72;;;;;;;5.07;100.00;99389.72;5091929;28;20363;-73
2023/01/19 08:06:48;;;;;;;6.80;4.85;;;;;;;5.05;100.00;99394.63;5091445;28;20067;-73
2023/01/19 08:09:17;;;;;;;8.57;4.68;;;;;;;5.20;100.00;99393.78;5091474;28;20051;-72
2023/01/19 08:11:45;;;;;;;7.30;5.20;;;;;;;5.16;100.00;99411.69;5093734;28;20135;-73
2023/01/19 08:14:13;;;;;;;8.07;5.22;;;;;;;5.41;100.00;99409.19;5095754;28;20366;-72
2023/01/19 08:16:41;;;;;;;10.23;6.40;;;;;;;5.10;100.00;99427.13;5095382;28;20474;-72
2023/01/19 08:19:09;;;;;;;10.70;6.07;;;;;;;4.74;100.00;99423.63;5095369;28;20063;-73
2023/01/19 08:21:37;;;;;;;9.35;5.78;;;;;;;4.79;100.00;99435.25;5095271;28;20040;-71
2023/01/19 08:24:05;;;;;;;11.02;5.32;;;;;;;4.73;100.00;99444.47;5095286;28;20486;-71
2023/01/19 08:26:34;;;;;;;11.07;5.47;;;;;;;4.47;100.00;99451.72;5095127;28;20078;-71
2023/01/19 08:29:04;;;;;;;7.88;4.65;;;;;;;4.27;100.00;99451.44;5095067;28;20371;-71
2023/01/19 08:31:32;;;;;;;9.60;4.32;;;;;;;4.22;100.00;99459.53;5095376;28;20047;-70
2023/01/19 08:34:00;;;;;;;7.70;4.22;;;;;;;3.93;100.00;99469.94;5095068;28;20474;-70
2023/01/19 08:36:29;;;;;;;4.68;3.85;;;;;;;3.84;100.00;99483.16;5094947;28;20047;-71
2023/01/19 08:38:57;;;;;;;7.85;4.28;;;;;;;3.69;100.00;99487.41;5076319;28;20055;-71
2023/01/19 08:41:25;;;;;;;5.93;4.13;;;;;;;3.54;100.00;99498.94;5094948;28;20048;-71
2023/01/19 08:43:53;;;;;;;6.85;4.30;;;;;;;3.49;100.00;99510.53;5094875;28;20390;-71
2023/01/19 08:46:21;;;;;;;6.90;4.68;;;;;;;3.27;100.00;99510.63;5094776;28;20040;-71
2023/01/19 08:48:49;;;;;;;6.40;4.13;;;;;;;3.11;100.00;99525.91;5094694;28;20410;-71
2023/01/19 08:51:18;;;;;;;5.88;4.10;;;;;;;3.04;100.00;99525.31;5094722;28;20051;-71
2023/01/19 08:53:46;;;;;;;6.75;4.38;;;;;;;2.85;100.00;99517.56;5094531;28;20040;-71
2023/01/19 08:56:14;;;;;;;5.70;3.53;;;;;;;2.82;100.00;99535.09;5094696;28;20044;-71
2023/01/19 08:58:43;;;;;;;5.97;4.15;;;;;;;2.78;100.00;99533.13;5094497;28;20436;-71
2023/01/19 09:01:13;;;;;;;6.50;4.20;;;;;;;2.86;100.00;99530.00;5094549;28;20501;-71
2023/01/19 09:03:42;;;;;;;6.28;4.18;;;;;;;2.84;100.00;99536.72;5094486;28;20048;-71
2023/01/19 09:06:15;;;;;;;7.68;4.18;;;;;;;2.73;100.00;99533.91;5094456;28;20040;-71
2023/01/19 09:08:44;;;;;;;5.33;3.73;;;;;;;2.49;100.00;99534.16;5076235;28;20044;-71
2023/01/19 09:11:14;;;;;;;5.15;3.50;;;;;;;2.69;100.00;99547.09;5094155;28;20048;-71
2023/01/19 09:13:42;;;;;;;5.60;3.90;;;;;;;2.72;100.00;99539.53;5094382;28;20044;-71
2023/01/19 09:16:11;;;;;;;6.72;4.15;;;;;;;2.84;100.00;99542.13;5094260;28;20394;-71
2023/01/19 09:18:40;;;;;;;4.90;3.83;;;;;;;2.87;100.00;99542.44;5094172;28;20044;-70
2023/01/19 09:21:08;;;;;;;8.20;4.00;;;;;;;2.89;100.00;99556.50;5093905;28;20055;-70
2023/01/19 09:23:36;;;;;;;7.30;4.10;;;;;;;2.86;100.00;99557.00;5093855;28;20063;-70
2023/01/19 09:26:05;;;;;;;5.43;3.35;;;;;;;2.90;100.00;99566.25;5094047;28;20040;-71
2023/01/19 09:28:33;;;;;;;6.40;3.80;;;;;;;2.87;100.00;99563.22;5093888;28;20040;-71
2023/01/19 09:31:08;;;;;;;5.82;3.83;;;;;;;2.81;100.00;99570.47;5076032;28;20052;-70
2023/01/19 09:33:36;;;;;;;4.18;3.20;;;;;;;3.02;100.00;99574.19;5094008;28;20048;-71
2023/01/19 09:36:04;;;;;;;7.15;3.50;;;;;;;2.92;100.00;99571.38;5093833;28;20501;-71
2023/01/19 09:38:32;;;;;;;8.60;4.53;;;;;;;3.02;100.00;99581.47;5094176;28;20075;-70
2023/01/19 09:41:00;;;;;;;6.10;4.28;;;;;;;3.06;100.00;99583.44;5093706;28;20055;-70
2023/01/19 09:43:58;;;;;;;6.47;5.10;;;;;;;3.02;100.00;99595.00;5093743;28;20051;-70
2023/01/19 09:46:38;;;;;;;9.63;4.60;;;;;;;3.08;100.00;99588.59;5092751;28;20491;-71
2023/01/19 09:49:13;;;;;;;5.32;4.20;;;;;;;3.09;100.00;99604.53;5093566;28;20071;-71
2023/01/19 09:51:45;;;;;;;7.10;4.13;;;;;;;3.30;100.00;99610.19;5075672;28;20059;-71
2023/01/19 09:54:15;;;;;;;6.47;4.00;;;;;;;3.22;100.00;99614.16;5093573;28;20364;-71
2023/01/19 09:56:44;;;;;;;4.93;3.38;;;;;;;3.05;100.00;99606.16;5093293;28;20044;-71
2023/01/19 09:59:28;;;;;;;5.20;3.55;;;;;;;2.94;100.00;99616.00;5093377;28;20040;-71
2023/01/19 10:02:40;;;;;;;3.67;3.28;;;;;;;2.79;100.00;99619.34;5093323;28;20044;-71
2023/01/19 10:05:44;;;;;;;3.75;3.15;;;;;;;2.81;100.00;99616.41;5085664;28;20051;-71
2023/01/19 10:08:39;;;;;;;3.95;3.40;;;;;;;2.79;100.00;99622.06;5061098;28;20055;-71
2023/01/19 10:11:37;;;;;;;4.90;2.78;;;;;;;2.54;100.00;99623.38;5093034;28;20048;-71
2023/01/19 10:14:35;;;;;;;5.05;2.50;;;;;;;2.56;100.00;99617.72;5093140;28;20044;-71
2023/01/19 10:17:46;;;;;;;2.35;2.15;;;;;;;2.54;100.00;99619.88;5093126;28;20048;-71
2023/01/19 10:20:34;;;;;;;4.88;2.97;;;;;;;2.52;100.00;99616.56;5093008;28;20052;-72
2023/01/19 10:23:16;;;;;;;2.10;1.95;;;;;;;2.48;100.00;99615.44;5074999;28;20051;-71
2023/01/19 10:25:44;;;;;;;3.05;2.72;;;;;;;2.34;100.00;99625.81;5092935;28;20051;-71
2023/01/19 10:28:15;;;;;;;2.88;2.55;;;;;;;2.38;100.00;99633.16;5092821;28;20036;-71
2023/01/19 10:30:45;;;;;;;4.88;2.97;;;;;;;2.45;100.00;99626.75;5092794;28;20043;-71
2023/01/19 10:33:14;;;;;;;3.40;2.42;;;;;;;2.52;100.00;99635.47;5092090;28;20406;-71
2023/01/19 10:35:43;;;;;;;4.63;2.78;;;;;;;2.45;100.00;99626.75;5092666;28;20043;-71
2023/01/19 10:38:14;;;;;;;4.85;2.50;;;;;;;2.40;100.00;99622.91;5092570;28;20071;-71
2023/01/19 10:40:52;;;;;;;4.60;2.95;;;;;;;2.19;100.00;99626.41;5092713;28;20044;-71
2023/01/19 10:43:40;;;;;;;3.92;2.75;;;;;;;2.27;100.00;99625.97;5092729;28;20044;-71
2023/01/19 10:46:33;;;;;;;2.97;2.65;;;;;;;2.28;100.00;99617.63;5092610;28;20044;-71
2023/01/19 10:49:02;;;;;;;3.78;2.85;;;;;;;2.21;100.00;99600.78;5092447;28;20052;-71
2023/01/19 10:51:30;;;;;;;2.78;2.42;;;;;;;2.23;100.00;99619.41;5092538;28;20075;-71
2023/01/19 10:54:01;;;;;;;3.20;2.15;;;;;;;2.11;100.00;99609.53;5092479;28;20044;-71
2023/01/19 10:56:37;;;;;;;4.10;2.72;;;;;;;2.18;100.00;99611.25;5092352;28;20051;-71
2023/01/19 10:59:06;;;;;;;3.13;2.35;;;;;;;2.13;100.00;99615.53;5092415;28;20048;-71
2023/01/19 11:01:37;;;;;;;6.55;3.25;;;;;;;2.02;100.00;99608.34;5092231;28;20048;-70
2023/01/19 11:04:28;;;;;;;3.92;2.97;;;;;;;2.30;100.00;99603.88;5092114;28;20047;-70
2023/01/19 11:07:19;;;;;;;3.75;1.98;;;;;;;2.26;100.00;99592.72;5091998;28;20102;-70
2023/01/19 11:09:48;;;;;;;2.35;2.15;;;;;;;2.38;100.00;99587.25;5092054;28;20048;-70
2023/01/19 11:12:23;;;;;;;4.85;3.75;;;;;;;2.39;100.00;99604.25;5091893;28;20127;-71
2023/01/19 11:14:52;;;;;;;5.85;4.10;;;;;;;2.33;100.00;99592.56;5092158;28;20048;-71
2023/01/19 11:17:24;;;;;;;3.10;2.28;;;;;;;2.36;100.00;99592.09;5091975;28;20040;-71
2023/01/19 11:19:59;;;;;;;2.75;2.28;;;;;;;2.25;100.00;99584.91;5092065;28;20079;-70
2023/01/19 11:22:32;;;;;;;2.35;2.10;;;;;;;2.30;100.00;99587.69;5074282;28;20048;-70
2023/01/19 11:25:03;;;;;;;3.00;2.42;;;;;;;2.40;100.00;99584.28;5088001;28;20052;-70
2023/01/19 11:27:35;;;;;;;2.30;1.88;;;;;;;2.44;100.00;99576.50;5082458;28;20403;-70
2023/01/19 11:30:19;;;;;;;1.67;1.58;;;;;;;2.56;100.00;99566.41;5088943;28;20055;-70
2023/01/19 11:32:48;;;;;;;1.70;1.50;;;;;;;2.79;100.00;99568.00;5071459;28;20491;-70
2023/01/19 11:35:35;;;;;;;2.17;1.77;;;;;;;2.78;100.00;99576.34;5071069;28;20048;-70
2023/01/19 11:38:17;;;;;;;3.70;2.30;;;;;;;2.90;100.00;99571.66;5071194;28;20040;-69
2023/01/19 11:40:56;;;;;;;2.67;1.90;;;;;;;2.94;100.00;99566.56;5071560;28;20055;-69
2023/01/19 11:43:29;;;;;;;3.83;3.10;;;;;;;3.10;100.00;99572.94;5072353;28;20510;-69
2023/01/19 11:46:16;;;;;;;4.25;2.80;;;;;;;3.12;100.00;99554.56;5091679;28;20043;-69
2023/01/19 11:49:07;;;;;;;2.63;2.22;;;;;;;3.16;100.00;99555.69;5098076;28;20040;-69
2023/01/19 11:51:49;;;;;;;3.17;2.75;;;;;;;3.32;100.00;99553.94;5115154;28;20398;-69
2023/01/19 11:54:24;;;;;;;3.35;2.60;;;;;;;3.48;100.00;99556.78;5098359;28;20374;-69
2023/01/19 11:56:54;;;;;;;3.78;2.53;;;;;;;3.50;100.00;99535.69;5116126;28;20047;-69
2023/01/19 11:59:25;;;;;;;3.92;2.92;;;;;;;3.63;100.00;99553.38;5098022;28;20055;-70